createdAt,value
2017-03-27T00:00:54.698Z,0
2017-03-27T00:01:54.117Z,0
2017-03-27T00:02:54.777Z,0
2017-03-27T00:03:54.492Z,0
2017-03-27T00:04:54.219Z,0
2017-03-27T00:05:54.562Z,0
2017-03-27T00:06:54.296Z,0
2017-03-27T00:07:54.334Z,0
2017-03-27T00:08:54.976Z,0
2017-03-27T00:09:54.697Z,0
2017-03-27T00:10:54.720Z,0
2017-03-27T00:11:54.465Z,0
2017-03-27T00:12:54.795Z,0
2017-03-27T00:13:55.138Z,0
2017-03-27T00:14:55.173Z,0
2017-03-27T00:15:54.280Z,0
2017-03-27T00:16:54.316Z,0
2017-03-27T00:17:54.968Z,0
2017-03-27T00:18:54.691Z,0
2017-03-27T00:19:54.735Z,0
2017-03-27T00:20:54.770Z,0
2017-03-27T00:21:54.805Z,0
2017-03-27T00:22:55.439Z,0
2017-03-27T00:23:54.872Z,0
2017-03-27T00:24:54.581Z,0
2017-03-27T00:25:54.954Z,0
2017-03-27T00:26:54.650Z,0
2017-03-27T00:27:54.703Z,0
2017-03-27T00:28:55.338Z,0
2017-03-27T00:29:55.060Z,0
2017-03-27T00:30:55.392Z,0
2017-03-27T00:31:54.811Z,0
2017-03-27T00:32:55.482Z,0
2017-03-27T00:33:55.187Z,0
2017-03-27T00:34:54.916Z,0
2017-03-27T00:35:54.963Z,0
2017-03-27T00:36:54.981Z,0
2017-03-27T00:37:55.326Z,0
2017-03-27T00:38:55.345Z,0
2017-03-27T00:39:55.569Z,0
2017-03-27T00:40:55.737Z,0
2017-03-27T00:41:55.752Z,0
2017-03-27T00:42:55.797Z,0
2017-03-27T00:43:55.826Z,0
2017-03-27T00:44:55.550Z,0
2017-03-27T00:45:55.886Z,0
2017-03-27T00:46:55.328Z,0
2017-03-27T00:47:55.959Z,0
2017-03-27T00:48:55.716Z,0
2017-03-27T00:49:56.015Z,0
2017-03-27T00:50:55.761Z,0
2017-03-27T00:51:56.031Z,0
2017-03-27T00:52:56.405Z,0
2017-03-27T00:53:56.483Z,0
2017-03-27T00:54:56.182Z,0
2017-03-27T00:55:55.601Z,0
2017-03-27T00:56:56.259Z,0
2017-03-27T00:57:56.581Z,0
2017-03-27T00:58:56.340Z,0
2017-03-27T00:59:56.058Z,0
2017-03-27T01:00:56.695Z,0
2017-03-27T01:01:56.131Z,0
2017-03-27T01:02:57.067Z,0
2017-03-27T01:03:57.079Z,0
2017-03-27T01:04:56.829Z,0
2017-03-27T01:05:55.939Z,0
2017-03-27T01:06:56.584Z,0
2017-03-27T01:07:56.298Z,0
2017-03-27T01:08:56.650Z,0
2017-03-27T01:09:56.067Z,0
2017-03-27T01:10:56.401Z,0
2017-03-27T01:11:56.740Z,0
2017-03-27T01:12:56.771Z,0
2017-03-27T01:13:56.801Z,0
2017-03-27T01:14:56.559Z,0
2017-03-27T01:15:56.569Z,0
2017-03-27T01:16:56.920Z,0
2017-03-27T01:17:56.628Z,0
2017-03-27T01:18:57.273Z,0
2017-03-27T01:19:56.703Z,0
2017-03-27T01:20:56.420Z,0
2017-03-27T01:21:57.093Z,0
2017-03-27T01:22:56.811Z,0
2017-03-27T01:23:57.138Z,0
2017-03-27T01:24:56.854Z,0
2017-03-27T01:25:56.894Z,0
2017-03-27T01:26:56.918Z,0
2017-03-27T01:27:57.263Z,0
2017-03-27T01:28:57.289Z,0
2017-03-27T01:29:57.032Z,0
2017-03-27T01:30:57.049Z,0
2017-03-27T01:31:57.090Z,0
2017-03-27T01:32:57.446Z,0
2017-03-27T01:33:58.059Z,0
2017-03-27T01:34:57.490Z,0
2017-03-27T01:35:57.243Z,0
2017-03-27T01:36:57.556Z,0
2017-03-27T01:37:57.595Z,0
2017-03-27T01:38:57.621Z,0
2017-03-27T01:39:57.671Z,0
2017-03-27T01:40:57.406Z,0
2017-03-27T01:41:57.733Z,0
2017-03-27T01:42:57.762Z,0
2017-03-27T01:43:57.805Z,0
2017-03-27T01:44:57.517Z,0
2017-03-27T01:45:57.248Z,0
2017-03-27T01:46:57.884Z,0
2017-03-27T01:47:57.606Z,0
2017-03-27T01:48:57.637Z,0
2017-03-27T01:49:57.971Z,0
2017-03-27T01:50:58.314Z,0
2017-03-27T01:51:57.730Z,0
2017-03-27T01:52:58.367Z,0
2017-03-27T01:53:57.833Z,0
2017-03-27T01:54:58.143Z,0
2017-03-27T01:55:57.572Z,0
2017-03-27T01:56:57.904Z,0
2017-03-27T01:57:57.937Z,0
2017-03-27T01:58:57.964Z,0
2017-03-27T01:59:58.302Z,0
2017-03-27T02:00:58.034Z,0
2017-03-27T02:01:57.753Z,0
2017-03-27T02:02:58.427Z,0
2017-03-27T02:03:58.734Z,0
2017-03-27T02:04:58.469Z,0
2017-03-27T02:05:58.241Z,0
2017-03-27T02:06:58.251Z,0
2017-03-27T02:07:58.259Z,0
2017-03-27T02:08:58.305Z,0
2017-03-27T02:09:58.622Z,0
2017-03-27T02:10:58.351Z,0
2017-03-27T02:11:58.077Z,0
2017-03-27T02:12:58.717Z,0
2017-03-27T02:13:58.753Z,0
2017-03-27T02:14:58.790Z,0
2017-03-27T02:15:58.537Z,0
2017-03-27T02:16:58.245Z,0
2017-03-27T02:17:58.282Z,0
2017-03-27T02:18:59.237Z,0
2017-03-27T02:19:59.581Z,0
2017-03-27T02:20:58.399Z,0
2017-03-27T02:21:58.716Z,0
2017-03-27T02:22:58.794Z,0
2017-03-27T02:23:59.069Z,0
2017-03-27T02:24:59.168Z,0
2017-03-27T02:25:58.843Z,0
2017-03-27T02:26:58.566Z,0
2017-03-27T02:27:59.509Z,0
2017-03-27T02:28:59.231Z,0
2017-03-27T02:29:58.972Z,0
2017-03-27T02:30:58.994Z,0
2017-03-27T02:31:59.330Z,0
2017-03-27T02:32:59.065Z,0
2017-03-27T02:33:59.710Z,0
2017-03-27T02:34:58.821Z,0
2017-03-27T02:35:58.862Z,0
2017-03-27T02:36:59.187Z,0
2017-03-27T02:37:59.239Z,0
2017-03-27T02:38:59.253Z,0
2017-03-27T02:39:59.887Z,0
2017-03-27T02:40:59.316Z,0
2017-03-27T02:41:59.364Z,0
2017-03-27T02:43:00.005Z,0
2017-03-27T02:44:00.044Z,0
2017-03-27T02:44:59.456Z,0
2017-03-27T02:45:59.180Z,0
2017-03-27T02:46:59.515Z,0
2017-03-27T02:48:00.455Z,0
2017-03-27T02:49:00.218Z,0
2017-03-27T02:49:59.935Z,0
2017-03-27T02:50:59.650Z,0
2017-03-27T02:51:59.971Z,0
2017-03-27T02:53:00.028Z,0
2017-03-27T02:53:59.740Z,0
2017-03-27T02:55:00.086Z,0
2017-03-27T02:56:00.116Z,0
2017-03-27T02:57:00.153Z,0
2017-03-27T02:58:00.476Z,0
2017-03-27T02:58:59.656Z,0
2017-03-27T02:59:59.927Z,0
2017-03-27T03:00:59.969Z,0
2017-03-27T03:01:59.992Z,0
2017-03-27T03:03:00.942Z,0
2017-03-27T03:04:00.074Z,0
2017-03-27T03:04:59.785Z,0
2017-03-27T03:05:59.824Z,0
2017-03-27T03:07:00.161Z,0
2017-03-27T03:08:00.804Z,0
2017-03-27T03:09:00.231Z,0
2017-03-27T03:10:00.575Z,0
2017-03-27T03:10:59.986Z,0
2017-03-27T03:12:00.312Z,0
2017-03-27T03:13:00.653Z,0
2017-03-27T03:14:00.986Z,0
2017-03-27T03:15:01.044Z,0
2017-03-27T03:16:01.061Z,0
2017-03-27T03:17:00.173Z,0
2017-03-27T03:18:01.116Z,0
2017-03-27T03:19:01.155Z,0
2017-03-27T03:20:00.881Z,0
2017-03-27T03:21:00.321Z,0
2017-03-27T03:22:00.654Z,0
2017-03-27T03:23:01.287Z,0
2017-03-27T03:24:00.702Z,0
2017-03-27T03:25:01.345Z,0
2017-03-27T03:26:00.763Z,0
2017-03-27T03:27:00.818Z,0
2017-03-27T03:28:01.145Z,0
2017-03-27T03:29:01.162Z,0
2017-03-27T03:30:01.505Z,0
2017-03-27T03:31:01.577Z,0
2017-03-27T03:32:01.568Z,0
2017-03-27T03:33:00.714Z,0
2017-03-27T03:34:01.624Z,0
2017-03-27T03:35:00.753Z,0
2017-03-27T03:36:01.085Z,0
2017-03-27T03:37:01.131Z,0
2017-03-27T03:38:01.150Z,0
2017-03-27T03:39:01.177Z,0
2017-03-27T03:40:01.831Z,0
2017-03-27T03:41:01.236Z,0
2017-03-27T03:42:01.598Z,0
2017-03-27T03:43:01.609Z,0
2017-03-27T03:44:01.370Z,0
2017-03-27T03:45:01.675Z,0
2017-03-27T03:46:01.096Z,0
2017-03-27T03:47:01.739Z,0
2017-03-27T03:48:01.776Z,0
2017-03-27T03:49:01.791Z,0
2017-03-27T03:50:02.146Z,0
2017-03-27T03:51:01.272Z,0
2017-03-27T03:52:01.604Z,0
2017-03-27T03:53:02.236Z,0
2017-03-27T03:54:01.964Z,0
2017-03-27T03:55:01.706Z,0
2017-03-27T03:56:01.736Z,0
2017-03-27T03:57:01.770Z,0
2017-03-27T03:58:01.776Z,0
2017-03-27T03:59:01.806Z,0
2017-03-27T04:00:01.858Z,0
2017-03-27T04:01:01.582Z,0
2017-03-27T04:02:01.916Z,0
2017-03-27T04:03:02.244Z,0
2017-03-27T04:04:02.298Z,0
2017-03-27T04:05:02.009Z,0
2017-03-27T04:06:01.756Z,0
2017-03-27T04:07:02.064Z,0
2017-03-27T04:08:02.395Z,0
2017-03-27T04:09:02.441Z,0
2017-03-27T04:10:02.470Z,0
2017-03-27T04:11:02.242Z,0
2017-03-27T04:12:01.923Z,0
2017-03-27T04:13:02.263Z,0
2017-03-27T04:14:02.593Z,0
2017-03-27T04:15:02.629Z,0
2017-03-27T04:16:02.344Z,0
2017-03-27T04:17:02.675Z,0
2017-03-27T04:18:03.011Z,0
2017-03-27T04:19:02.761Z,0
2017-03-27T04:20:02.491Z,0
2017-03-27T04:21:02.197Z,0
2017-03-27T04:22:02.541Z,0
2017-03-27T04:23:02.568Z,0
2017-03-27T04:24:02.937Z,0
2017-03-27T04:25:02.630Z,0
2017-03-27T04:26:02.685Z,0
2017-03-27T04:27:02.395Z,0
2017-03-27T04:28:02.728Z,0
2017-03-27T04:29:03.073Z,0
2017-03-27T04:30:02.794Z,0
2017-03-27T04:31:02.861Z,0
2017-03-27T04:32:02.564Z,0
2017-03-27T04:33:02.904Z,0
2017-03-27T04:34:03.217Z,0
2017-03-27T04:35:03.248Z,0
2017-03-27T04:36:02.675Z,0
2017-03-27T04:37:02.740Z,0
2017-03-27T04:38:03.648Z,0
2017-03-27T04:39:02.783Z,0
2017-03-27T04:40:03.103Z,0
2017-03-27T04:41:02.838Z,0
2017-03-27T04:42:02.867Z,0
2017-03-27T04:43:02.902Z,0
2017-03-27T04:44:02.929Z,0
2017-03-27T04:45:03.562Z,0
2017-03-27T04:46:02.995Z,5
2017-03-27T04:47:03.328Z,5
2017-03-27T04:48:03.664Z,5
2017-03-27T04:49:03.397Z,5
2017-03-27T04:50:04.027Z,5
2017-03-27T04:51:03.453Z,5
2017-03-27T04:52:03.795Z,5
2017-03-27T04:53:03.515Z,5
2017-03-27T04:54:03.550Z,10
2017-03-27T04:55:03.893Z,10
2017-03-27T04:56:03.335Z,10
2017-03-27T04:57:04.240Z,10
2017-03-27T04:58:03.680Z,10
2017-03-27T04:59:04.011Z,15
2017-03-27T05:00:03.775Z,15
2017-03-27T05:01:03.767Z,15
2017-03-27T05:02:03.505Z,15
2017-03-27T05:03:03.843Z,20
2017-03-27T05:04:04.162Z,20
2017-03-27T05:05:04.218Z,20
2017-03-27T05:06:04.236Z,20
2017-03-27T05:07:03.656Z,20
2017-03-27T05:08:04.311Z,25
2017-03-27T05:09:04.323Z,25
2017-03-27T05:10:04.100Z,25
2017-03-27T05:11:03.774Z,25
2017-03-27T05:12:03.831Z,30
2017-03-27T05:13:04.166Z,30
2017-03-27T05:14:04.183Z,30
2017-03-27T05:15:04.213Z,30
2017-03-27T05:16:04.411Z,35
2017-03-27T05:17:04.576Z,35
2017-03-27T05:18:04.317Z,35
2017-03-27T05:19:04.345Z,40
2017-03-27T05:20:04.665Z,40
2017-03-27T05:21:04.387Z,40
2017-03-27T05:22:04.135Z,40
2017-03-27T05:23:04.757Z,45
2017-03-27T05:24:04.786Z,45
2017-03-27T05:25:04.533Z,45
2017-03-27T05:26:04.252Z,45
2017-03-27T05:27:04.594Z,50
2017-03-27T05:28:04.918Z,50
2017-03-27T05:29:04.662Z,50
2017-03-27T05:30:04.691Z,50
2017-03-27T05:31:04.413Z,55
2017-03-27T05:32:04.755Z,55
2017-03-27T05:33:04.777Z,55
2017-03-27T05:34:04.857Z,55
2017-03-27T05:35:04.847Z,60
2017-03-27T05:36:04.568Z,60
2017-03-27T05:37:04.910Z,60
2017-03-27T05:38:04.938Z,65
2017-03-27T05:39:04.972Z,65
2017-03-27T05:40:05.004Z,65
2017-03-27T05:41:04.723Z,65
2017-03-27T05:42:04.759Z,70
2017-03-27T05:43:06.006Z,70
2017-03-27T05:44:05.133Z,70
2017-03-27T05:45:04.849Z,70
2017-03-27T05:46:04.886Z,70
2017-03-27T05:47:04.915Z,75
2017-03-27T05:48:05.253Z,75
2017-03-27T05:49:04.977Z,75
2017-03-27T05:50:05.786Z,80
2017-03-27T05:51:05.346Z,80
2017-03-27T05:52:05.692Z,80
2017-03-27T05:53:05.412Z,85
2017-03-27T05:54:05.743Z,90
2017-03-27T05:55:05.784Z,95
2017-03-27T05:56:05.816Z,115
2017-03-27T05:57:05.534Z,210
2017-03-27T05:58:05.966Z,315
2017-03-27T05:59:05.600Z,385
2017-03-27T06:00:05.654Z,405
2017-03-27T06:01:05.678Z,410
2017-03-27T06:02:05.742Z,420
2017-03-27T06:03:06.046Z,435
2017-03-27T06:04:05.776Z,450
2017-03-27T06:05:06.412Z,460
2017-03-27T06:06:05.884Z,475
2017-03-27T06:07:06.193Z,485
2017-03-27T06:08:06.218Z,490
2017-03-27T06:09:06.546Z,495
2017-03-27T06:10:06.291Z,505
2017-03-27T06:11:06.020Z,510
2017-03-27T06:12:06.053Z,515
2017-03-27T06:13:06.400Z,520
2017-03-27T06:14:06.452Z,530
2017-03-27T06:15:05.868Z,535
2017-03-27T06:16:06.223Z,530
2017-03-27T06:17:06.262Z,530
2017-03-27T06:18:06.395Z,530
2017-03-27T06:19:07.736Z,535
2017-03-27T06:20:06.598Z,540
2017-03-27T06:21:06.604Z,550
2017-03-27T06:22:06.139Z,565
2017-03-27T06:23:06.511Z,585
2017-03-27T06:24:06.562Z,610
2017-03-27T06:25:06.939Z,620
2017-03-27T06:26:07.044Z,630
2017-03-27T06:27:06.779Z,630
2017-03-27T06:28:07.020Z,630
2017-03-27T06:29:07.881Z,635
2017-03-27T06:30:06.854Z,625
2017-03-27T06:31:06.538Z,625
2017-03-27T06:32:06.840Z,635
2017-03-27T06:33:07.187Z,640
2017-03-27T06:34:06.935Z,645
2017-03-27T06:35:06.681Z,670
2017-03-27T06:36:07.488Z,685
2017-03-27T06:37:07.081Z,700
2017-03-27T06:38:06.803Z,715
2017-03-27T06:39:06.921Z,720
2017-03-27T06:40:07.493Z,725
2017-03-27T06:41:06.926Z,730
2017-03-27T06:42:07.263Z,735
2017-03-27T06:43:08.524Z,755
2017-03-27T06:44:07.462Z,760
2017-03-27T06:45:07.219Z,775
2017-03-27T06:46:07.140Z,790
2017-03-27T06:47:07.184Z,805
2017-03-27T06:48:08.139Z,805
2017-03-27T06:49:07.571Z,810
2017-03-27T06:50:07.984Z,820
2017-03-27T06:51:07.694Z,815
2017-03-27T06:52:07.409Z,820
2017-03-27T06:53:08.055Z,820
2017-03-27T06:54:07.818Z,820
2017-03-27T06:55:07.556Z,820
2017-03-27T06:56:08.243Z,815
2017-03-27T06:57:07.924Z,810
2017-03-27T06:58:07.687Z,805
2017-03-27T06:59:07.711Z,800
2017-03-27T07:00:08.060Z,800
2017-03-27T07:01:08.095Z,810
2017-03-27T07:02:07.882Z,810
2017-03-27T07:03:08.249Z,810
2017-03-27T07:04:08.250Z,815
2017-03-27T07:05:07.981Z,830
2017-03-27T07:06:08.323Z,855
2017-03-27T07:07:08.369Z,855
2017-03-27T07:08:08.747Z,870
2017-03-27T07:09:08.774Z,890
2017-03-27T07:10:08.849Z,895
2017-03-27T07:11:08.302Z,920
2017-03-27T07:12:08.602Z,940
2017-03-27T07:13:08.651Z,975
2017-03-27T07:14:08.736Z,995
2017-03-27T07:15:08.764Z,1010
2017-03-27T07:16:08.472Z,1025
2017-03-27T07:17:08.831Z,1050
2017-03-27T07:18:08.935Z,1060
2017-03-27T07:19:08.932Z,1045
2017-03-27T07:20:09.303Z,1040
2017-03-27T07:21:09.318Z,1040
2017-03-27T07:22:08.758Z,1045
2017-03-27T07:23:09.106Z,1040
2017-03-27T07:24:09.157Z,1045
2017-03-27T07:25:09.185Z,1050
2017-03-27T07:26:08.963Z,1070
2017-03-27T07:27:09.305Z,1065
2017-03-27T07:28:09.651Z,1070
2017-03-27T07:29:09.682Z,1095
2017-03-27T07:30:09.356Z,1110
2017-03-27T07:31:09.169Z,1125
2017-03-27T07:32:09.231Z,1150
2017-03-27T07:33:09.583Z,1180
2017-03-27T07:34:09.622Z,1200
2017-03-27T07:35:09.522Z,1210
2017-03-27T07:36:09.760Z,1210
2017-03-27T07:37:09.840Z,1195
2017-03-27T07:38:10.155Z,1185
2017-03-27T07:39:10.160Z,1180
2017-03-27T07:40:09.598Z,1170
2017-03-27T07:41:09.687Z,1140
2017-03-27T07:42:10.015Z,1120
2017-03-27T07:43:09.791Z,1100
2017-03-27T07:44:10.265Z,1095
2017-03-27T07:45:10.182Z,1100
2017-03-27T07:46:11.434Z,1110
2017-03-27T07:47:11.834Z,1130
2017-03-27T07:48:12.325Z,1155
2017-03-27T07:49:10.035Z,1200
2017-03-27T07:50:10.550Z,1240
2017-03-27T07:51:10.452Z,1260
2017-03-27T07:52:10.782Z,1275
2017-03-27T07:53:10.303Z,1285
2017-03-27T07:54:10.909Z,1285
2017-03-27T07:55:10.426Z,1295
2017-03-27T07:56:10.663Z,1310
2017-03-27T07:57:11.038Z,1335
2017-03-27T07:58:10.770Z,1360
2017-03-27T07:59:10.814Z,1375
2017-03-27T08:00:10.855Z,1405
2017-03-27T08:01:10.920Z,1430
2017-03-27T08:02:10.947Z,1465
2017-03-27T08:03:11.331Z,1475
2017-03-27T08:04:11.143Z,1495
2017-03-27T08:05:10.795Z,1520
2017-03-27T08:06:11.035Z,1555
2017-03-27T08:07:11.364Z,1600
2017-03-27T08:08:10.949Z,1615
2017-03-27T08:09:11.006Z,1625
2017-03-27T08:10:11.425Z,1635
2017-03-27T08:11:11.083Z,1650
2017-03-27T08:12:11.131Z,1675
2017-03-27T08:13:12.378Z,1675
2017-03-27T08:14:11.555Z,1670
2017-03-27T08:15:11.960Z,1655
2017-03-27T08:16:11.638Z,1660
2017-03-27T08:17:11.682Z,1670
2017-03-27T08:18:11.747Z,1665
2017-03-27T08:19:12.094Z,1660
2017-03-27T08:20:11.841Z,1670
2017-03-27T08:21:11.967Z,1680
2017-03-27T08:22:11.807Z,1690
2017-03-27T08:23:12.049Z,1700
2017-03-27T08:24:12.349Z,1705
2017-03-27T08:25:12.114Z,1690
2017-03-27T08:26:12.437Z,1675
2017-03-27T08:27:11.946Z,1650
2017-03-27T08:28:12.253Z,1610
2017-03-27T08:29:12.514Z,1605
2017-03-27T08:30:12.687Z,1615
2017-03-27T08:31:12.687Z,1635
2017-03-27T08:32:13.359Z,1665
2017-03-27T08:33:12.501Z,1670
2017-03-27T08:34:12.530Z,1665
2017-03-27T08:35:12.886Z,1615
2017-03-27T08:36:12.648Z,1580
2017-03-27T08:37:12.992Z,1565
2017-03-27T08:38:12.577Z,1540
2017-03-27T08:39:12.929Z,1545
2017-03-27T08:40:12.850Z,1580
2017-03-27T08:41:12.898Z,1620
2017-03-27T08:42:13.250Z,1655
2017-03-27T08:43:13.296Z,1670
2017-03-27T08:44:13.040Z,1675
2017-03-27T08:45:13.097Z,1655
2017-03-27T08:46:12.836Z,1635
2017-03-27T08:47:13.497Z,1620
2017-03-27T08:48:12.933Z,1630
2017-03-27T08:49:13.620Z,1655
2017-03-27T08:50:13.056Z,1675
2017-03-27T08:51:13.112Z,1690
2017-03-27T08:52:13.186Z,1710
2017-03-27T08:53:13.492Z,1740
2017-03-27T08:54:13.550Z,1750
2017-03-27T08:55:15.672Z,1730
2017-03-27T08:56:13.650Z,1720
2017-03-27T08:57:14.009Z,1710
2017-03-27T08:58:14.058Z,1725
2017-03-27T08:59:13.806Z,1720
2017-03-27T09:00:13.556Z,1720
2017-03-27T09:01:13.599Z,1715
2017-03-27T09:02:13.656Z,1690
2017-03-27T09:03:14.034Z,1675
2017-03-27T09:04:14.362Z,1675
2017-03-27T09:05:14.267Z,1695
2017-03-27T09:06:13.857Z,1715
2017-03-27T09:07:14.742Z,1735
2017-03-27T09:08:14.263Z,1770
2017-03-27T09:09:14.622Z,1780
2017-03-27T09:10:14.072Z,1800
2017-03-27T09:11:14.425Z,1825
2017-03-27T09:12:14.500Z,1850
2017-03-27T09:13:14.521Z,1855
2017-03-27T09:14:15.193Z,1840
2017-03-27T09:15:14.734Z,1825
2017-03-27T09:16:14.718Z,1835
2017-03-27T09:17:15.048Z,1840
2017-03-27T09:18:14.794Z,1845
2017-03-27T09:19:15.148Z,1835
2017-03-27T09:20:14.641Z,1830
2017-03-27T09:21:15.548Z,1825
2017-03-27T09:22:15.603Z,1825
2017-03-27T09:23:15.061Z,1820
2017-03-27T09:24:15.107Z,1800
2017-03-27T09:25:14.872Z,1765
2017-03-27T09:26:15.542Z,1740
2017-03-27T09:27:15.569Z,1720
2017-03-27T09:28:15.018Z,1715
2017-03-27T09:29:15.679Z,1695
2017-03-27T09:30:15.127Z,1675
2017-03-27T09:31:15.178Z,1640
2017-03-27T09:32:15.534Z,1615
2017-03-27T09:33:15.588Z,1610
2017-03-27T09:34:15.355Z,1615
2017-03-27T09:35:15.735Z,1630
2017-03-27T09:36:16.054Z,1610
2017-03-27T09:37:15.507Z,1600
2017-03-27T09:38:15.865Z,1595
2017-03-27T09:39:16.239Z,1595
2017-03-27T09:40:15.672Z,1620
2017-03-27T09:41:15.722Z,1645
2017-03-27T09:42:15.777Z,1670
2017-03-27T09:43:16.443Z,1690
2017-03-27T09:44:17.101Z,1720
2017-03-27T09:45:15.945Z,1750
2017-03-27T09:46:16.001Z,1775
2017-03-27T09:47:16.355Z,1790
2017-03-27T09:48:16.410Z,1795
2017-03-27T09:49:16.164Z,1785
2017-03-27T09:50:16.832Z,1790
2017-03-27T09:51:16.271Z,1785
2017-03-27T09:52:16.324Z,1780
2017-03-27T09:53:16.702Z,1785
2017-03-27T09:54:17.066Z,1790
2017-03-27T09:55:17.098Z,1805
2017-03-27T09:56:16.852Z,1805
2017-03-27T09:57:16.932Z,1780
2017-03-27T09:58:16.667Z,1775
2017-03-27T09:59:17.022Z,1765
2017-03-27T10:00:16.789Z,1775
2017-03-27T10:01:16.824Z,1770
2017-03-27T10:02:16.883Z,1795
2017-03-27T10:03:16.989Z,1795
2017-03-27T10:04:17.608Z,1790
2017-03-27T10:05:17.655Z,1785
2017-03-27T10:06:17.106Z,1745
2017-03-27T10:07:17.165Z,1705
2017-03-27T10:08:17.561Z,1680
2017-03-27T10:09:17.596Z,1670
2017-03-27T10:10:17.329Z,1680
2017-03-27T10:11:17.693Z,1695
2017-03-27T10:12:17.743Z,1700
2017-03-27T10:13:17.799Z,1720
2017-03-27T10:14:17.553Z,1735
2017-03-27T10:15:17.673Z,1745
2017-03-27T10:16:17.671Z,1770
2017-03-27T10:17:17.890Z,1800
2017-03-27T10:18:18.092Z,1800
2017-03-27T10:19:18.898Z,1820
2017-03-27T10:20:18.204Z,1835
2017-03-27T10:21:18.556Z,1845
2017-03-27T10:22:18.629Z,1835
2017-03-27T10:23:18.374Z,1815
2017-03-27T10:24:18.438Z,1785
2017-03-27T10:25:18.194Z,1795
2017-03-27T10:26:18.538Z,1810
2017-03-27T10:27:18.912Z,1815
2017-03-27T10:28:18.959Z,1810
2017-03-27T10:29:19.025Z,1790
2017-03-27T10:30:18.464Z,1760
2017-03-27T10:31:18.834Z,1735
2017-03-27T10:32:19.192Z,1705
2017-03-27T10:33:19.248Z,1665
2017-03-27T10:34:19.617Z,1605
2017-03-27T10:35:19.056Z,1535
2017-03-27T10:36:19.477Z,1440
2017-03-27T10:37:20.074Z,1340
2017-03-27T10:38:19.538Z,1240
2017-03-27T10:39:18.993Z,1170
2017-03-27T10:40:19.647Z,1140
2017-03-27T10:41:19.099Z,1155
2017-03-27T10:42:19.752Z,1230
2017-03-27T10:43:19.814Z,1360
2017-03-27T10:44:19.568Z,1520
2017-03-27T10:45:19.324Z,1670
2017-03-27T10:46:19.704Z,1800
2017-03-27T10:47:19.765Z,1905
2017-03-27T10:48:20.132Z,1975
2017-03-27T10:49:20.166Z,2010
2017-03-27T10:50:19.911Z,2020
2017-03-27T10:51:20.374Z,2005
2017-03-27T10:52:20.062Z,1965
2017-03-27T10:53:20.118Z,1945
2017-03-27T10:54:20.445Z,1915
2017-03-27T10:55:19.933Z,1870
2017-03-27T10:56:20.275Z,1850
2017-03-27T10:57:20.309Z,1825
2017-03-27T10:58:20.673Z,1840
2017-03-27T10:59:20.739Z,1850
2017-03-27T11:00:20.174Z,1860
2017-03-27T11:01:20.228Z,1845
2017-03-27T11:02:20.626Z,1845
2017-03-27T11:03:20.960Z,1820
2017-03-27T11:04:21.019Z,1795
2017-03-27T11:05:20.716Z,1750
2017-03-27T11:06:20.515Z,1745
2017-03-27T11:07:20.898Z,1740
2017-03-27T11:08:21.243Z,1750
2017-03-27T11:09:20.960Z,1785
2017-03-27T11:10:21.045Z,1835
2017-03-27T11:11:20.793Z,1870
2017-03-27T11:12:20.856Z,1910
2017-03-27T11:13:21.219Z,1935
2017-03-27T11:14:21.865Z,1940
2017-03-27T11:15:21.629Z,1920
2017-03-27T11:16:21.080Z,1325
2017-03-27T11:17:21.744Z,400
2017-03-27T11:18:21.792Z,270
2017-03-27T11:19:22.151Z,255
2017-03-27T11:20:21.299Z,240
2017-03-27T11:21:21.646Z,240
2017-03-27T11:22:21.695Z,230
2017-03-27T11:23:21.761Z,225
2017-03-27T11:24:21.807Z,220
2017-03-27T11:25:21.936Z,210
2017-03-27T11:26:21.911Z,205
2017-03-27T11:27:21.987Z,205
2017-03-27T11:28:22.016Z,205
2017-03-27T11:29:21.772Z,200
2017-03-27T11:30:22.133Z,195
2017-03-27T11:31:22.166Z,195
2017-03-27T11:32:21.923Z,195
2017-03-27T11:33:21.968Z,190
2017-03-27T11:34:22.639Z,195
2017-03-27T11:35:22.065Z,190
2017-03-27T11:36:22.116Z,185
2017-03-27T11:37:22.169Z,185
2017-03-27T11:38:22.525Z,185
2017-03-27T11:39:23.246Z,185
2017-03-27T11:40:22.554Z,180
2017-03-27T11:41:22.966Z,180
2017-03-27T11:42:22.418Z,180
2017-03-27T11:43:22.767Z,175
2017-03-27T11:44:22.844Z,175
2017-03-27T11:45:22.943Z,175
2017-03-27T11:46:22.616Z,175
2017-03-27T11:47:23.357Z,170
2017-03-27T11:48:23.363Z,170
2017-03-27T11:49:23.088Z,170
2017-03-27T11:50:22.833Z,170
2017-03-27T11:51:22.879Z,165
2017-03-27T11:52:23.005Z,170
2017-03-27T11:53:22.995Z,165
2017-03-27T11:54:23.009Z,165
2017-03-27T11:55:23.051Z,165
2017-03-27T11:56:23.112Z,165
2017-03-27T11:57:23.121Z,165
2017-03-27T11:58:23.481Z,165
2017-03-27T11:59:23.213Z,165
2017-03-27T12:00:23.292Z,160
2017-03-27T12:01:23.638Z,160
2017-03-27T12:02:23.653Z,160
2017-03-27T12:03:23.419Z,155
2017-03-27T12:04:23.489Z,155
2017-03-27T12:05:23.558Z,155
2017-03-27T12:06:23.864Z,155
2017-03-27T12:07:23.880Z,155
2017-03-27T12:08:23.931Z,150
2017-03-27T12:09:23.982Z,150
2017-03-27T12:10:23.744Z,150
2017-03-27T12:11:24.064Z,150
2017-03-27T12:12:23.809Z,145
2017-03-27T12:13:24.466Z,145
2017-03-27T12:14:23.902Z,145
2017-03-27T12:15:23.942Z,145
2017-03-27T12:16:23.979Z,145
2017-03-27T12:17:24.629Z,140
2017-03-27T12:18:24.978Z,140
2017-03-27T12:19:24.117Z,140
2017-03-27T12:20:24.476Z,140
2017-03-27T12:21:24.852Z,140
2017-03-27T12:22:24.577Z,135
2017-03-27T12:23:24.609Z,135
2017-03-27T12:24:24.331Z,135
2017-03-27T12:25:24.408Z,135
2017-03-27T12:26:24.475Z,135
2017-03-27T12:27:24.509Z,130
2017-03-27T12:28:24.507Z,130
2017-03-27T12:29:24.581Z,130
2017-03-27T12:30:24.924Z,130
2017-03-27T12:31:24.668Z,130
2017-03-27T12:32:24.707Z,130
2017-03-27T12:33:24.786Z,125
2017-03-27T12:34:24.785Z,125
2017-03-27T12:35:24.815Z,125
2017-03-27T12:36:24.955Z,125
2017-03-27T12:37:25.220Z,125
2017-03-27T12:38:25.238Z,125
2017-03-27T12:39:25.294Z,125
2017-03-27T12:40:25.024Z,120
2017-03-27T12:41:25.075Z,120
2017-03-27T12:42:25.123Z,120
2017-03-27T12:43:25.330Z,120
2017-03-27T12:44:25.206Z,120
2017-03-27T12:45:25.535Z,120
2017-03-27T12:46:25.302Z,120
2017-03-27T12:47:25.645Z,120
2017-03-27T12:48:25.387Z,120
2017-03-27T12:49:26.023Z,120
2017-03-27T12:50:25.761Z,120
2017-03-27T12:51:25.496Z,120
2017-03-27T12:52:25.558Z,120
2017-03-27T12:53:25.905Z,120
2017-03-27T12:54:26.292Z,120
2017-03-27T12:55:25.680Z,115
2017-03-27T12:56:25.738Z,115
2017-03-27T12:57:25.775Z,115
2017-03-27T12:58:25.788Z,115
2017-03-27T12:59:25.868Z,115
2017-03-27T13:00:26.182Z,115
2017-03-27T13:01:25.928Z,115
2017-03-27T13:02:26.259Z,115
2017-03-27T13:03:26.608Z,115
2017-03-27T13:04:26.342Z,115
2017-03-27T13:05:26.081Z,115
2017-03-27T13:06:26.137Z,115
2017-03-27T13:07:26.779Z,115
2017-03-27T13:08:26.514Z,115
2017-03-27T13:09:26.255Z,115
2017-03-27T13:10:26.603Z,115
2017-03-27T13:11:26.338Z,115
2017-03-27T13:12:26.730Z,115
2017-03-27T13:13:26.420Z,115
2017-03-27T13:14:26.769Z,115
2017-03-27T13:15:26.807Z,115
2017-03-27T13:16:26.551Z,115
2017-03-27T13:17:26.594Z,115
2017-03-27T13:18:26.943Z,115
2017-03-27T13:19:26.680Z,115
2017-03-27T13:20:26.723Z,115
2017-03-27T13:21:26.767Z,115
2017-03-27T13:22:27.214Z,115
2017-03-27T13:23:26.874Z,115
2017-03-27T13:24:27.211Z,110
2017-03-27T13:25:26.991Z,110
2017-03-27T13:26:27.359Z,110
2017-03-27T13:27:27.307Z,110
2017-03-27T13:28:27.957Z,110
2017-03-27T13:29:27.996Z,110
2017-03-27T13:30:27.769Z,110
2017-03-27T13:31:27.250Z,110
2017-03-27T13:32:27.512Z,110
2017-03-27T13:33:28.181Z,110
2017-03-27T13:34:27.608Z,110
2017-03-27T13:35:27.636Z,110
2017-03-27T13:36:28.016Z,110
2017-03-27T13:37:27.720Z,110
2017-03-27T13:38:27.808Z,110
2017-03-27T13:39:27.804Z,110
2017-03-27T13:40:27.550Z,110
2017-03-27T13:41:27.890Z,110
2017-03-27T13:42:28.242Z,105
2017-03-27T13:43:28.288Z,105
2017-03-27T13:44:28.322Z,105
2017-03-27T13:45:27.769Z,105
2017-03-27T13:46:28.099Z,105
2017-03-27T13:47:27.844Z,105
2017-03-27T13:48:28.194Z,105
2017-03-27T13:49:27.918Z,105
2017-03-27T13:50:28.260Z,105
2017-03-27T13:51:28.016Z,105
2017-03-27T13:52:28.344Z,105
2017-03-27T13:53:28.077Z,105
2017-03-27T13:54:28.124Z,105
2017-03-27T13:55:28.165Z,105
2017-03-27T13:56:28.211Z,105
2017-03-27T13:57:28.252Z,105
2017-03-27T13:58:28.296Z,105
2017-03-27T13:59:28.333Z,105
2017-03-27T14:00:28.376Z,105
2017-03-27T14:01:28.426Z,105